Charter Quote
Worldwide +1-877-727-2538 Call
Select Language Lang
SAFETY RELIABILITY EXPERIENCE

Private Jet Charter Services - Dunhuang Airport (ZLDH)

Paramount Business Jets offers private jet charter flights and luxury airliner charters to and from Dunhuang Airport.

AIRPORT INFORMATION
ICAOZLDH
IATADNH
LOCATIONDunhuang, China
FACILITY TYPEAIRPORT

At Paramount Business Jets you can hire chartered private jets to and from Dunhuang Airport with as little as 4 hours of notice. All flights booked via Paramount Business Jets are operated by certified direct air carriers that meet and exceed the FAA part 135 and 121 protocol or a foreign equivalent safety authority. Furthermore, Paramount Business Jets subscribes to ARGUS for their third party safety checks of operators, aircraft, and crews prior each and every flight to and from Dunhuang Airport and worldwide.

  • Quote a trip using Dunhuang Airport or call us 24/7 - 365 days a year at +1-877-727-2538.
Questions? Call +1-877-727-2538

METAR Weather Data at Dunhuang Airport, ZLDH, DNH

STATIONZLDH
OBSERVEDTue Oct 2, 09:00 UTC
NOWThu Nov 14, 17:16 UTC
AGE62384:16 hr ago
WINDN at 4 mph
VISIBILITYgreater than 7 miles
CLOUDSclear skies
TEMP75°F (24°C)
DEWPT25°F (-4°C)
HUMIDITY15%
BAROMETER1015 hPa (29.97 in Hg)
METARZLDH 020900Z 36002MPS 290V040 CAVOK 24/M04 Q1015

Call us on +1-877-727-2538 (24 Hours), Check our Pricing, or Get a Quick Quote.

Find Airports Near any Location

Processing
...